sensor_id;sensor_type;location;lat;lon;timestamp;pressure;altitude;pressure_sealevel;temperature;humidity
5283;BME280;15376;48.540;9.268;2023-07-30T00:01:11;97163.44;;;17.34;100.00
5283;BME280;15376;48.540;9.268;2023-07-30T00:03:37;97187.84;;;17.33;100.00
5283;BME280;15376;48.540;9.268;2023-07-30T00:06:02;97163.19;;;17.24;100.00
5283;BME280;15376;48.540;9.268;2023-07-30T00:08:28;97187.13;;;17.38;100.00
5283;BME280;15376;48.540;9.268;2023-07-30T00:10:53;97172.44;;;17.28;100.00
5283;BME280;15376;48.540;9.268;2023-07-30T00:13:18;97184.47;;;17.38;100.00
5283;BME280;15376;48.540;9.268;2023-07-30T00:15:47;97189.84;;;17.49;100.00
5283;BME280;15376;48.540;9.268;2023-07-30T00:18:13;97192.84;;;17.41;100.00
5283;BME280;15376;48.540;9.268;2023-07-30T00:20:39;97166.94;;;17.23;100.00
5283;BME280;15376;48.540;9.268;2023-07-30T00:23:04;97191.34;;;17.45;100.00
5283;BME280;15376;48.540;9.268;2023-07-30T00:25:29;97182.59;;;17.38;100.00
5283;BME280;15376;48.540;9.268;2023-07-30T00:27:55;97162.16;;;17.25;100.00
5283;BME280;15376;48.540;9.268;2023-07-30T00:30:20;97194.50;;;17.42;100.00
5283;BME280;15376;48.540;9.268;2023-07-30T00:32:45;97187.13;;;17.38;100.00
5283;BME280;15376;48.540;9.268;2023-07-30T00:35:11;97197.75;;;17.44;100.00
5283;BME280;15376;48.540;9.268;2023-07-30T00:37:36;97190.19;;;17.41;100.00
5283;BME280;15376;48.540;9.268;2023-07-30T00:40:02;97207.69;;;17.44;100.00
5283;BME280;15376;48.540;9.268;2023-07-30T00:42:28;97187.25;;;17.31;100.00
5283;BME280;15376;48.540;9.268;2023-07-30T00:44:54;97190.28;;;17.23;100.00
5283;BME280;15376;48.540;9.268;2023-07-30T00:47:20;97172.31;;;17.12;100.00
5283;BME280;15376;48.540;9.268;2023-07-30T00:49:46;97182.81;;;17.25;100.00
5283;BME280;15376;48.540;9.268;2023-07-30T00:52:12;97208.25;;;17.34;100.00
5283;BME280;15376;48.540;9.268;2023-07-30T00:54:38;97193.31;;;17.15;100.00
5283;BME280;15376;48.540;9.268;2023-07-30T00:57:04;97205.91;;;17.14;100.00
5283;BME280;15376;48.540;9.268;2023-07-30T00:59:29;97190.72;;;16.96;100.00
5283;BME280;15376;48.540;9.268;2023-07-30T01:01:56;97215.25;;;17.12;100.00
5283;BME280;15376;48.540;9.268;2023-07-30T01:04:22;97211.53;;;17.13;100.00
5283;BME280;15376;48.540;9.268;2023-07-30T01:06:47;97203.81;;;17.05;100.00
5283;BME280;15376;48.540;9.268;2023-07-30T01:09:13;97203.22;;;17.03;100.00
5283;BME280;15376;48.540;9.268;2023-07-30T01:11:39;97213.97;;;17.14;100.00
5283;BME280;15376;48.540;9.268;2023-07-30T01:14:06;97218.66;;;17.19;100.00
5283;BME280;15376;48.540;9.268;2023-07-30T01:16:32;97226.56;;;17.25;100.00
5283;BME280;15376;48.540;9.268;2023-07-30T01:18:58;97247.94;;;17.32;100.00
5283;BME280;15376;48.540;9.268;2023-07-30T01:21:24;97221.78;;;17.16;100.00
5283;BME280;15376;48.540;9.268;2023-07-30T01:23:49;97246.31;;;17.31;100.00
5283;BME280;15376;48.540;9.268;2023-07-30T01:26:23;97244.66;;;17.30;100.00
5283;BME280;15376;48.540;9.268;2023-07-30T01:28:51;97239.06;;;17.31;100.00
5283;BME280;15376;48.540;9.268;2023-07-30T01:31:20;97244.66;;;17.30;100.00
5283;BME280;15376;48.540;9.268;2023-07-30T01:33:49;97234.84;;;17.24;100.00
5283;BME280;15376;48.540;9.268;2023-07-30T01:36:18;97227.03;;;17.22;100.00
5283;BME280;15376;48.540;9.268;2023-07-30T01:38:44;97239.75;;;17.27;100.00
5283;BME280;15376;48.540;9.268;2023-07-30T01:41:10;97202.75;;;17.06;100.00
5283;BME280;15376;48.540;9.268;2023-07-30T01:43:36;97218.53;;;17.14;100.00
5283;BME280;15376;48.540;9.268;2023-07-30T01:46:01;97229.63;;;17.17;100.00
5283;BME280;15376;48.540;9.268;2023-07-30T01:48:27;97233.56;;;17.15;100.00
5283;BME280;15376;48.540;9.268;2023-07-30T01:50:52;97205.53;;;16.99;100.00
5283;BME280;15376;48.540;9.268;2023-07-30T01:53:17;97208.44;;;16.97;100.00
5283;BME280;15376;48.540;9.268;2023-07-30T01:55:43;97202.38;;;16.90;100.00
5283;BME280;15376;48.540;9.268;2023-07-30T01:58:14;97226.31;;;17.04;100.00
5283;BME280;15376;48.540;9.268;2023-07-30T02:00:40;97215.09;;;16.95;100.00
5283;BME280;15376;48.540;9.268;2023-07-30T02:03:06;97185.91;;;16.75;100.00
5283;BME280;15376;48.540;9.268;2023-07-30T02:05:31;97209.22;;;16.75;100.00
5283;BME280;15376;48.540;9.268;2023-07-30T02:07:57;97222.63;;;16.75;100.00
5283;BME280;15376;48.540;9.268;2023-07-30T02:10:24;97235.47;;;16.84;100.00
5283;BME280;15376;48.540;9.268;2023-07-30T02:12:50;97197.91;;;16.54;100.00
5283;BME280;15376;48.540;9.268;2023-07-30T02:15:15;97221.97;;;16.61;100.00
5283;BME280;15376;48.540;9.268;2023-07-30T02:17:41;97213.19;;;16.54;100.00
5283;BME280;15376;48.540;9.268;2023-07-30T02:20:07;97209.47;;;16.55;100.00
5283;BME280;15376;48.540;9.268;2023-07-30T02:22:32;97214.81;;;16.55;100.00
5283;BME280;15376;48.540;9.268;2023-07-30T02:24:57;97211.53;;;16.53;100.00
5283;BME280;15376;48.540;9.268;2023-07-30T02:27:23;97207.09;;;16.47;100.00
5283;BME280;15376;48.540;9.268;2023-07-30T02:29:48;97220.63;;;16.52;100.00
5283;BME280;15376;48.540;9.268;2023-07-30T02:32:13;97201.00;;;16.40;100.00
5283;BME280;15376;48.540;9.268;2023-07-30T02:34:39;97187.34;;;16.29;100.00
5283;BME280;15376;48.540;9.268;2023-07-30T02:37:04;97207.16;;;16.28;100.00
5283;BME280;15376;48.540;9.268;2023-07-30T02:39:30;97213.69;;;16.14;100.00
5283;BME280;15376;48.540;9.268;2023-07-30T02:41:55;97210.00;;;15.97;100.00
5283;BME280;15376;48.540;9.268;2023-07-30T02:44:20;97230.28;;;16.05;100.00
5283;BME280;15376;48.540;9.268;2023-07-30T02:46:46;97223.06;;;16.05;100.00
5283;BME280;15376;48.540;9.268;2023-07-30T02:49:11;97233.94;;;16.10;100.00
5283;BME280;15376;48.540;9.268;2023-07-30T02:51:36;97217.56;;;16.00;100.00
5283;BME280;15376;48.540;9.268;2023-07-30T02:54:06;97199.00;;;15.87;100.00
5283;BME280;15376;48.540;9.268;2023-07-30T02:56:32;97222.41;;;16.10;100.00
5283;BME280;15376;48.540;9.268;2023-07-30T02:58:58;97206.41;;;16.03;100.00
5283;BME280;15376;48.540;9.268;2023-07-30T03:01:24;97226.50;;;16.12;100.00
5283;BME280;15376;48.540;9.268;2023-07-30T03:03:49;97224.50;;;16.08;100.00
5283;BME280;15376;48.540;9.268;2023-07-30T03:06:15;97215.59;;;15.95;100.00
5283;BME280;15376;48.540;9.268;2023-07-30T03:08:42;97215.22;;;15.92;100.00
5283;BME280;15376;48.540;9.268;2023-07-30T03:11:08;97208.66;;;15.88;100.00
5283;BME280;15376;48.540;9.268;2023-07-30T03:13:33;97233.19;;;16.03;100.00
5283;BME280;15376;48.540;9.268;2023-07-30T03:15:58;97216.84;;;15.93;100.00
5283;BME280;15376;48.540;9.268;2023-07-30T03:18:24;97209.09;;;15.85;100.00
5283;BME280;15376;48.540;9.268;2023-07-30T03:20:49;97235.50;;;15.99;100.00
5283;BME280;15376;48.540;9.268;2023-07-30T03:23:15;97220.13;;;15.95;100.00
5283;BME280;15376;48.540;9.268;2023-07-30T03:25:40;97197.66;;;15.78;100.00
5283;BME280;15376;48.540;9.268;2023-07-30T03:28:05;97232.25;;;15.79;100.00
5283;BME280;15376;48.540;9.268;2023-07-30T03:30:31;97205.97;;;15.70;100.00
5283;BME280;15376;48.540;9.268;2023-07-30T03:32:56;97199.50;;;15.77;100.00
5283;BME280;15376;48.540;9.268;2023-07-30T03:35:21;97229.91;;;16.01;100.00
5283;BME280;15376;48.540;9.268;2023-07-30T03:37:47;97222.94;;;15.82;100.00
5283;BME280;15376;48.540;9.268;2023-07-30T03:40:12;97244.59;;;15.98;100.00
5283;BME280;15376;48.540;9.268;2023-07-30T03:42:37;97209.56;;;15.82;100.00
5283;BME280;15376;48.540;9.268;2023-07-30T03:45:03;97238.84;;;16.13;100.00
5283;BME280;15376;48.540;9.268;2023-07-30T03:47:29;97238.84;;;16.13;100.00
5283;BME280;15376;48.540;9.268;2023-07-30T03:49:54;97247.50;;;16.15;100.00
5283;BME280;15376;48.540;9.268;2023-07-30T03:52:20;97255.31;;;16.17;100.00
5283;BME280;15376;48.540;9.268;2023-07-30T03:54:45;97261.47;;;16.17;100.00
5283;BME280;15376;48.540;9.268;2023-07-30T03:57:10;97252.16;;;16.01;100.00
5283;BME280;15376;48.540;9.268;2023-07-30T03:59:36;97233.59;;;15.88;100.00
5283;BME280;15376;48.540;9.268;2023-07-30T04:02:01;97268.16;;;16.08;100.00
5283;BME280;15376;48.540;9.268;2023-07-30T04:04:26;97270.31;;;15.99;100.00
5283;BME280;15376;48.540;9.268;2023-07-30T04:06:52;97255.91;;;15.82;100.00
5283;BME280;15376;48.540;9.268;2023-07-30T04:09:17;97269.53;;;15.99;100.00
5283;BME280;15376;48.540;9.268;2023-07-30T04:11:42;97251.06;;;15.91;100.00
5283;BME280;15376;48.540;9.268;2023-07-30T04:14:08;97255.22;;;16.05;100.00
5283;BME280;15376;48.540;9.268;2023-07-30T04:16:34;97272.63;;;16.14;100.00
5283;BME280;15376;48.540;9.268;2023-07-30T04:18:59;97250.47;;;16.07;100.00
5283;BME280;15376;48.540;9.268;2023-07-30T04:21:24;97287.38;;;16.23;100.00
5283;BME280;15376;48.540;9.268;2023-07-30T04:23:50;97273.00;;;16.18;100.00
5283;BME280;15376;48.540;9.268;2023-07-30T04:26:16;97280.38;;;16.22;100.00
5283;BME280;15376;48.540;9.268;2023-07-30T04:28:41;97281.13;;;16.29;100.00
5283;BME280;15376;48.540;9.268;2023-07-30T04:31:06;97290.50;;;16.39;100.00
5283;BME280;15376;48.540;9.268;2023-07-30T04:33:32;97292.94;;;16.40;100.00
5283;BME280;15376;48.540;9.268;2023-07-30T04:35:57;97293.19;;;16.39;100.00
5283;BME280;15376;48.540;9.268;2023-07-30T04:38:22;97294.94;;;16.45;100.00
5283;BME280;15376;48.540;9.268;2023-07-30T04:40:48;97279.31;;;16.42;100.00
5283;BME280;15376;48.540;9.268;2023-07-30T04:43:14;97306.78;;;16.55;100.00
5283;BME280;15376;48.540;9.268;2023-07-30T04:45:39;97290.78;;;16.49;100.00
5283;BME280;15376;48.540;9.268;2023-07-30T04:48:05;97301.56;;;16.60;100.00
5283;BME280;15376;48.540;9.268;2023-07-30T04:50:30;97301.34;;;16.62;100.00
5283;BME280;15376;48.540;9.268;2023-07-30T04:52:56;97295.03;;;16.56;100.00
5283;BME280;15376;48.540;9.268;2023-07-30T04:55:21;97297.84;;;16.61;100.00
5283;BME280;15376;48.540;9.268;2023-07-30T04:57:46;97277.81;;;16.46;100.00
5283;BME280;15376;48.540;9.268;2023-07-30T05:00:12;97285.56;;;16.54;100.00
5283;BME280;15376;48.540;9.268;2023-07-30T05:02:37;97276.03;;;16.58;100.00
5283;BME280;15376;48.540;9.268;2023-07-30T05:05:03;97278.22;;;16.67;100.00
5283;BME280;15376;48.540;9.268;2023-07-30T05:07:28;97295.75;;;16.82;100.00
5283;BME280;15376;48.540;9.268;2023-07-30T05:09:54;97290.38;;;16.82;100.00
5283;BME280;15376;48.540;9.268;2023-07-30T05:12:19;97272.31;;;16.77;100.00
5283;BME280;15376;48.540;9.268;2023-07-30T05:14:44;97305.53;;;17.06;100.00
5283;BME280;15376;48.540;9.268;2023-07-30T05:17:10;97307.53;;;17.22;100.00
5283;BME280;15376;48.540;9.268;2023-07-30T05:19:35;97313.22;;;17.44;100.00
5283;BME280;15376;48.540;9.268;2023-07-30T05:22:00;97315.44;;;17.47;100.00
5283;BME280;15376;48.540;9.268;2023-07-30T05:24:27;97319.97;;;17.47;100.00
5283;BME280;15376;48.540;9.268;2023-07-30T05:26:52;97317.44;;;17.52;100.00
5283;BME280;15376;48.540;9.268;2023-07-30T05:29:17;97310.88;;;17.59;100.00
5283;BME280;15376;48.540;9.268;2023-07-30T05:31:43;97279.03;;;17.51;100.00
5283;BME280;15376;48.540;9.268;2023-07-30T05:34:08;97306.09;;;17.61;100.00
5283;BME280;15376;48.540;9.268;2023-07-30T05:36:33;97306.38;;;17.72;100.00
5283;BME280;15376;48.540;9.268;2023-07-30T05:38:59;97295.41;;;17.73;100.00
5283;BME280;15376;48.540;9.268;2023-07-30T05:41:24;97275.19;;;17.71;100.00
5283;BME280;15376;48.540;9.268;2023-07-30T05:43:50;97291.69;;;17.86;100.00
5283;BME280;15376;48.540;9.268;2023-07-30T05:46:15;97288.41;;;17.84;100.00
5283;BME280;15376;48.540;9.268;2023-07-30T05:48:40;97275.09;;;17.89;100.00
5283;BME280;15376;48.540;9.268;2023-07-30T05:51:06;97283.72;;;17.91;100.00
5283;BME280;15376;48.540;9.268;2023-07-30T05:53:31;97297.53;;;17.94;100.00
5283;BME280;15376;48.540;9.268;2023-07-30T05:55:57;97273.47;;;17.88;100.00
5283;BME280;15376;48.540;9.268;2023-07-30T05:58:22;97286.06;;;17.99;100.00
5283;BME280;15376;48.540;9.268;2023-07-30T06:00:47;97276.00;;;18.06;100.00
5283;BME280;15376;48.540;9.268;2023-07-30T06:03:13;97287.91;;;18.22;100.00
5283;BME280;15376;48.540;9.268;2023-07-30T06:05:40;97292.44;;;18.33;100.00
5283;BME280;15376;48.540;9.268;2023-07-30T06:08:06;97273.63;;;18.33;100.00
5283;BME280;15376;48.540;9.268;2023-07-30T06:10:34;97269.00;;;18.45;100.00
5283;BME280;15376;48.540;9.268;2023-07-30T06:12:59;97280.09;;;18.72;100.00
5283;BME280;15376;48.540;9.268;2023-07-30T06:15:25;97274.63;;;18.84;100.00
5283;BME280;15376;48.540;9.268;2023-07-30T06:17:50;97264.31;;;18.92;100.00
5283;BME280;15376;48.540;9.268;2023-07-30T06:20:15;97261.53;;;18.87;100.00
5283;BME280;15376;48.540;9.268;2023-07-30T06:22:41;97262.91;;;18.90;100.00
5283;BME280;15376;48.540;9.268;2023-07-30T06:25:06;97279.31;;;18.88;100.00
5283;BME280;15376;48.540;9.268;2023-07-30T06:27:32;97259.03;;;18.69;100.00
5283;BME280;15376;48.540;9.268;2023-07-30T06:29:57;97271.13;;;18.83;100.00
5283;BME280;15376;48.540;9.268;2023-07-30T06:32:22;97260.53;;;18.77;100.00
5283;BME280;15376;48.540;9.268;2023-07-30T06:34:48;97252.53;;;18.82;100.00
5283;BME280;15376;48.540;9.268;2023-07-30T06:37:13;97245.47;;;18.92;100.00
5283;BME280;15376;48.540;9.268;2023-07-30T06:39:38;97239.88;;;19.11;100.00
5283;BME280;15376;48.540;9.268;2023-07-30T06:42:04;97239.88;;;19.27;100.00
5283;BME280;15376;48.540;9.268;2023-07-30T06:44:29;97262.81;;;19.47;100.00
5283;BME280;15376;48.540;9.268;2023-07-30T06:46:54;97257.88;;;19.55;100.00
5283;BME280;15376;48.540;9.268;2023-07-30T06:49:20;97255.22;;;19.44;100.00
5283;BME280;15376;48.540;9.268;2023-07-30T06:51:45;97273.19;;;19.38;100.00
5283;BME280;15376;48.540;9.268;2023-07-30T06:54:11;97272.75;;;19.29;100.00
5283;BME280;15376;48.540;9.268;2023-07-30T06:56:36;97268.75;;;19.32;100.00
5283;BME280;15376;48.540;9.268;2023-07-30T06:59:02;97281.31;;;19.55;100.00
5283;BME280;15376;48.540;9.268;2023-07-30T07:01:28;97280.31;;;19.78;100.00
5283;BME280;15376;48.540;9.268;2023-07-30T07:03:53;97257.41;;;19.97;100.00
5283;BME280;15376;48.540;9.268;2023-07-30T07:06:18;97251.50;;;20.00;100.00
5283;BME280;15376;48.540;9.268;2023-07-30T07:08:44;97272.97;;;20.12;100.00
5283;BME280;15376;48.540;9.268;2023-07-30T07:11:09;97284.03;;;20.32;100.00
5283;BME280;15376;48.540;9.268;2023-07-30T07:13:34;97272.97;;;20.50;100.00
5283;BME280;15376;48.540;9.268;2023-07-30T07:16:00;97276.84;;;20.59;100.00
5283;BME280;15376;48.540;9.268;2023-07-30T07:18:25;97282.22;;;20.81;100.00
5283;BME280;15376;48.540;9.268;2023-07-30T07:20:50;97266.94;;;20.92;100.00
5283;BME280;15376;48.540;9.268;2023-07-30T07:23:16;97256.66;;;20.89;100.00
5283;BME280;15376;48.540;9.268;2023-07-30T07:25:41;97273.28;;;20.76;100.00
5283;BME280;15376;48.540;9.268;2023-07-30T07:28:06;97290.72;;;20.68;100.00
5283;BME280;15376;48.540;9.268;2023-07-30T07:30:35;97293.09;;;20.43;100.00
5283;BME280;15376;48.540;9.268;2023-07-30T07:33:00;97289.69;;;20.30;100.00
5283;BME280;15376;48.540;9.268;2023-07-30T07:35:26;97286.84;;;20.20;100.00
5283;BME280;15376;48.540;9.268;2023-07-30T07:37:51;97289.06;;;20.07;100.00
5283;BME280;15376;48.540;9.268;2023-07-30T07:40:16;97274.19;;;19.65;100.00
5283;BME280;15376;48.540;9.268;2023-07-30T07:42:42;97318.34;;;19.64;100.00
5283;BME280;15376;48.540;9.268;2023-07-30T07:45:07;97325.56;;;19.30;100.00
5283;BME280;15376;48.540;9.268;2023-07-30T07:47:33;97333.00;;;18.08;100.00
5283;BME280;15376;48.540;9.268;2023-07-30T07:49:59;97318.81;;;17.43;100.00
5283;BME280;15376;48.540;9.268;2023-07-30T07:52:26;97347.69;;;17.17;100.00
5283;BME280;15376;48.540;9.268;2023-07-30T07:54:51;97351.69;;;16.96;100.00
5283;BME280;15376;48.540;9.268;2023-07-30T07:57:16;97339.34;;;16.77;100.00
5283;BME280;15376;48.540;9.268;2023-07-30T07:59:42;97360.03;;;16.88;100.00
5283;BME280;15376;48.540;9.268;2023-07-30T08:02:10;97351.72;;;16.78;100.00
5283;BME280;15376;48.540;9.268;2023-07-30T08:04:36;97341.22;;;16.77;100.00
5283;BME280;15376;48.540;9.268;2023-07-30T08:07:01;97370.75;;;17.07;100.00
5283;BME280;15376;48.540;9.268;2023-07-30T08:09:29;97348.50;;;17.18;100.00
5283;BME280;15376;48.540;9.268;2023-07-30T08:11:54;97362.72;;;17.48;100.00
5283;BME280;15376;48.540;9.268;2023-07-30T08:14:20;97377.38;;;17.76;100.00
5283;BME280;15376;48.540;9.268;2023-07-30T08:16:45;97366.66;;;17.87;100.00
5283;BME280;15376;48.540;9.268;2023-07-30T08:19:10;97363.16;;;18.10;100.00
5283;BME280;15376;48.540;9.268;2023-07-30T08:21:36;97370.03;;;18.41;100.00
5283;BME280;15376;48.540;9.268;2023-07-30T08:24:01;97348.28;;;18.54;100.00
5283;BME280;15376;48.540;9.268;2023-07-30T08:26:26;97347.91;;;18.74;100.00
5283;BME280;15376;48.540;9.268;2023-07-30T08:28:52;97351.19;;;18.76;100.00
5283;BME280;15376;48.540;9.268;2023-07-30T08:31:17;97351.09;;;18.99;100.00
5283;BME280;15376;48.540;9.268;2023-07-30T08:33:42;97352.47;;;19.14;100.00
5283;BME280;15376;48.540;9.268;2023-07-30T08:36:08;97359.56;;;19.20;100.00
5283;BME280;15376;48.540;9.268;2023-07-30T08:38:33;97342.69;;;19.24;100.00
5283;BME280;15376;48.540;9.268;2023-07-30T08:40:58;97334.78;;;19.18;100.00
5283;BME280;15376;48.540;9.268;2023-07-30T08:43:24;97357.88;;;19.30;100.00
5283;BME280;15376;48.540;9.268;2023-07-30T08:45:49;97336.66;;;19.34;100.00
5283;BME280;15376;48.540;9.268;2023-07-30T08:48:15;97335.94;;;19.39;100.00
5283;BME280;15376;48.540;9.268;2023-07-30T08:50:40;97349.31;;;19.79;100.00
5283;BME280;15376;48.540;9.268;2023-07-30T08:53:07;97336.41;;;19.81;100.00
5283;BME280;15376;48.540;9.268;2023-07-30T08:55:34;97340.09;;;19.75;100.00
5283;BME280;15376;48.540;9.268;2023-07-30T08:58:01;97341.78;;;19.81;100.00
5283;BME280;15376;48.540;9.268;2023-07-30T09:00:31;97339.84;;;19.93;100.00
5283;BME280;15376;48.540;9.268;2023-07-30T09:03:00;97338.41;;;20.07;100.00
5283;BME280;15376;48.540;9.268;2023-07-30T09:05:27;97301.31;;;20.14;100.00
5283;BME280;15376;48.540;9.268;2023-07-30T09:07:56;97329.88;;;20.49;100.00
5283;BME280;15376;48.540;9.268;2023-07-30T09:10:22;97327.06;;;20.39;100.00
5283;BME280;15376;48.540;9.268;2023-07-30T09:12:57;97320.53;;;20.18;100.00
5283;BME280;15376;48.540;9.268;2023-07-30T09:15:32;97333.59;;;20.09;100.00
5283;BME280;15376;48.540;9.268;2023-07-30T09:17:58;97329.06;;;19.93;100.00
5283;BME280;15376;48.540;9.268;2023-07-30T09:20:24;97332.66;;;19.82;100.00
5283;BME280;15376;48.540;9.268;2023-07-30T09:22:49;97320.41;;;19.57;100.00
5283;BME280;15376;48.540;9.268;2023-07-30T09:25:18;97310.47;;;19.29;100.00
5283;BME280;15376;48.540;9.268;2023-07-30T09:27:48;97339.94;;;19.36;100.00
5283;BME280;15376;48.540;9.268;2023-07-30T09:30:13;97334.50;;;19.19;100.00
5283;BME280;15376;48.540;9.268;2023-07-30T09:32:38;97320.00;;;18.92;100.00
5283;BME280;15376;48.540;9.268;2023-07-30T09:35:08;97346.09;;;18.91;100.00
5283;BME280;15376;48.540;9.268;2023-07-30T09:37:39;97344.88;;;18.59;100.00
5283;BME280;15376;48.540;9.268;2023-07-30T09:40:06;97358.69;;;18.51;100.00
5283;BME280;15376;48.540;9.268;2023-07-30T09:42:32;97356.50;;;18.36;100.00
5283;BME280;15376;48.540;9.268;2023-07-30T09:45:00;97358.25;;;18.30;100.00
5283;BME280;15376;48.540;9.268;2023-07-30T09:47:26;97368.44;;;18.28;100.00
5283;BME280;15376;48.540;9.268;2023-07-30T09:49:53;97363.84;;;18.41;100.00
5283;BME280;15376;48.540;9.268;2023-07-30T09:52:18;97362.53;;;18.55;100.00
5283;BME280;15376;48.540;9.268;2023-07-30T09:54:44;97364.53;;;18.48;100.00
5283;BME280;15376;48.540;9.268;2023-07-30T09:57:10;97378.09;;;18.53;100.00
5283;BME280;15376;48.540;9.268;2023-07-30T09:59:35;97391.44;;;18.71;100.00
5283;BME280;15376;48.540;9.268;2023-07-30T10:02:01;97368.88;;;18.72;100.00
5283;BME280;15376;48.540;9.268;2023-07-30T10:04:26;97381.63;;;19.05;100.00
5283;BME280;15376;48.540;9.268;2023-07-30T10:06:56;97389.69;;;19.17;100.00
5283;BME280;15376;48.540;9.268;2023-07-30T10:09:26;97358.31;;;19.11;100.00
5283;BME280;15376;48.540;9.268;2023-07-30T10:11:52;97378.91;;;19.17;100.00
5283;BME280;15376;48.540;9.268;2023-07-30T10:14:22;97397.44;;;19.30;100.00
5283;BME280;15376;48.540;9.268;2023-07-30T10:16:53;97406.91;;;19.32;100.00
5283;BME280;15376;48.540;9.268;2023-07-30T10:19:23;97402.66;;;19.48;100.00
5283;BME280;15376;48.540;9.268;2023-07-30T10:21:50;97379.38;;;19.42;100.00
5283;BME280;15376;48.540;9.268;2023-07-30T10:24:15;97381.66;;;19.79;100.00
5283;BME280;15376;48.540;9.268;2023-07-30T10:26:40;97368.50;;;19.99;100.00
5283;BME280;15376;48.540;9.268;2023-07-30T10:29:15;97399.28;;;20.03;100.00
5283;BME280;15376;48.540;9.268;2023-07-30T10:31:42;97396.34;;;20.05;100.00
5283;BME280;15376;48.540;9.268;2023-07-30T10:34:09;97382.47;;;19.96;100.00
5283;BME280;15376;48.540;9.268;2023-07-30T10:36:47;97395.56;;;20.38;100.00
5283;BME280;15376;48.540;9.268;2023-07-30T10:39:17;97388.66;;;20.47;100.00
5283;BME280;15376;48.540;9.268;2023-07-30T10:41:49;97389.88;;;20.56;100.00
5283;BME280;15376;48.540;9.268;2023-07-30T10:44:29;97410.81;;;20.49;100.00
5283;BME280;15376;48.540;9.268;2023-07-30T10:46:57;97376.41;;;20.22;100.00
5283;BME280;15376;48.540;9.268;2023-07-30T10:49:23;97400.00;;;20.49;100.00
5283;BME280;15376;48.540;9.268;2023-07-30T10:51:51;97404.22;;;20.78;100.00
5283;BME280;15376;48.540;9.268;2023-07-30T10:54:18;97392.28;;;20.96;100.00
5283;BME280;15376;48.540;9.268;2023-07-30T10:56:43;97389.31;;;21.41;100.00
5283;BME280;15376;48.540;9.268;2023-07-30T10:59:12;97365.31;;;22.09;100.00
5283;BME280;15376;48.540;9.268;2023-07-30T11:01:43;97391.06;;;22.53;100.00
5283;BME280;15376;48.540;9.268;2023-07-30T11:04:19;97401.88;;;22.95;100.00
5283;BME280;15376;48.540;9.268;2023-07-30T11:06:47;97393.97;;;22.89;98.56
5283;BME280;15376;48.540;9.268;2023-07-30T11:09:26;97377.34;;;22.70;100.00
5283;BME280;15376;48.540;9.268;2023-07-30T11:11:54;97376.44;;;23.02;99.65
5283;BME280;15376;48.540;9.268;2023-07-30T11:14:21;97362.97;;;23.37;91.78
5283;BME280;15376;48.540;9.268;2023-07-30T11:16:52;97366.34;;;24.31;91.63
5283;BME280;15376;48.540;9.268;2023-07-30T11:19:19;97386.38;;;25.79;87.34
5283;BME280;15376;48.540;9.268;2023-07-30T11:21:49;97392.84;;;27.46;76.01
5283;BME280;15376;48.540;9.268;2023-07-30T11:24:15;97398.34;;;28.16;74.99
5283;BME280;15376;48.540;9.268;2023-07-30T11:26:41;97388.91;;;28.28;68.32
5283;BME280;15376;48.540;9.268;2023-07-30T11:29:16;97402.16;;;27.64;68.77
5283;BME280;15376;48.540;9.268;2023-07-30T11:31:43;97391.91;;;28.59;66.16
5283;BME280;15376;48.540;9.268;2023-07-30T11:34:08;97383.44;;;30.45;62.07
5283;BME280;15376;48.540;9.268;2023-07-30T11:36:34;97383.47;;;31.16;54.97
5283;BME280;15376;48.540;9.268;2023-07-30T11:38:59;97395.50;;;31.63;51.14
5283;BME280;15376;48.540;9.268;2023-07-30T11:41:25;97372.53;;;32.45;49.79
5283;BME280;15376;48.540;9.268;2023-07-30T11:43:51;97388.53;;;32.52;44.61
5283;BME280;15376;48.540;9.268;2023-07-30T11:46:17;97342.53;;;31.97;45.04
5283;BME280;15376;48.540;9.268;2023-07-30T11:48:47;97382.69;;;32.62;47.07
5283;BME280;15376;48.540;9.268;2023-07-30T11:51:24;97397.06;;;32.68;41.62
5283;BME280;15376;48.540;9.268;2023-07-30T11:53:54;97385.50;;;32.19;42.47
5283;BME280;15376;48.540;9.268;2023-07-30T11:56:31;97401.63;;;31.43;45.59
5283;BME280;15376;48.540;9.268;2023-07-30T11:59:00;97410.94;;;32.80;42.67
5283;BME280;15376;48.540;9.268;2023-07-30T12:01:29;97413.84;;;31.28;42.01
5283;BME280;15376;48.540;9.268;2023-07-30T12:03:59;97412.56;;;29.74;45.99
5283;BME280;15376;48.540;9.268;2023-07-30T12:06:40;97418.50;;;28.20;49.91
5283;BME280;15376;48.540;9.268;2023-07-30T12:09:17;97412.59;;;27.38;53.77
5283;BME280;15376;48.540;9.268;2023-07-30T12:12:00;97410.25;;;26.55;54.71
5283;BME280;15376;48.540;9.268;2023-07-30T12:14:43;97406.38;;;25.00;57.34
5283;BME280;15376;48.540;9.268;2023-07-30T12:17:09;97396.53;;;25.19;63.74
5283;BME280;15376;48.540;9.268;2023-07-30T12:19:34;97409.28;;;26.99;56.42
5283;BME280;15376;48.540;9.268;2023-07-30T12:22:01;97385.88;;;28.75;51.24
5283;BME280;15376;48.540;9.268;2023-07-30T12:24:27;97384.28;;;30.01;46.95
5283;BME280;15376;48.540;9.268;2023-07-30T12:26:52;97379.16;;;30.93;45.03
5283;BME280;15376;48.540;9.268;2023-07-30T12:29:17;97392.31;;;31.96;43.14
5283;BME280;15376;48.540;9.268;2023-07-30T12:31:43;97400.56;;;31.87;41.59
5283;BME280;15376;48.540;9.268;2023-07-30T12:34:09;97399.41;;;32.31;40.30
5283;BME280;15376;48.540;9.268;2023-07-30T12:36:35;97400.69;;;32.16;40.74
5283;BME280;15376;48.540;9.268;2023-07-30T12:39:00;97392.47;;;31.08;41.50
5283;BME280;15376;48.540;9.268;2023-07-30T12:41:25;97398.94;;;29.83;44.38
5283;BME280;15376;48.540;9.268;2023-07-30T12:43:57;97378.56;;;31.04;42.38
5283;BME280;15376;48.540;9.268;2023-07-30T12:46:23;97320.53;;;30.71;40.02
5283;BME280;15376;48.540;9.268;2023-07-30T12:48:49;97386.03;;;31.95;42.49
5283;BME280;15376;48.540;9.268;2023-07-30T12:51:14;97378.72;;;32.34;40.77
5283;BME280;15376;48.540;9.268;2023-07-30T12:53:40;97378.78;;;32.63;37.89
5283;BME280;15376;48.540;9.268;2023-07-30T12:56:05;97401.41;;;31.22;40.54
5283;BME280;15376;48.540;9.268;2023-07-30T12:58:31;97381.13;;;29.72;43.14